Almo, ID

6:20 PM MDT on October 25, 2014 (GMT -0600)
RAWS GOOSE CREEK ID US | Change Station
CLOSE
Current Station
Personal Weather Station
Location: Almo, ID
Elevation: 5660 ft
Nearby Weather Stations

Elev 5660 ft 42.10 °N, 113.90 °W | Updated 35 minutes ago

Mostly Cloudy
Mostly Cloudy
67 °F
Feels Like 67 °F
N
12
Wind Variable Wind from South
Gusts 23.0 mph

Today
High -- | Low -- °F
--% Chance of Precip.
Yesterday
High -- | Low -- °F
Precip. -- in
7:58 AM 6:37 PM
Waxing Crescent, 5% visible
Pressure 29.75 in
Visibility 10.0 miles
Clouds Clear
Dew Point 31 °F
Humidity 26%
Rainfall 0.00 in
Snow Depth Not available.
UV 0 out of 12
Pollen 3.20 out of 12
PM2.5 Good
Flu Activity No Activity
METAR KBYI 252353Z AUTO 18005KT 10SM CLR 21/02 A2981 RMK AO2 SLP072 T02060022 10239 20200 58016

More Conditions Fewer Conditions

Pressure 29.75 in
Visibility 10.0 miles
Clouds Clear
Dew Point 31 °F
Humidity 26%
Rainfall 0.00 in
Snow Depth Not available.
UV 0 out of 12
Pollen 3.20 out of 12
PM2.5 Good
Flu Activity No Activity
METAR KBYI 252353Z AUTO 18005KT 10SM CLR 21/02 A2981 RMK AO2 SLP072 T02060022 10239 20200 58016

More Conditions Fewer Conditions

10-Day Weather Forecast

Almanac

Astronomy

Oct. 25, 2014 Rise Set
Actual Time 7:58 AM MDT 6:37 PM MDT
Civil Twilight 7:30 AM MDT 7:06 PM MDT
Nautical Twilight 6:57 AM MDT 7:38 PM MDT
Astronomical Twilight 6:25 AM MDT 8:11 PM MDT
Moon 9:43 AM MDT (10/25) 8:02 PM MDT (10/25)
Length of Visible Light 11h 35m
Length of Day
10h 38m
Tomorrow will be 2m 37s shorter.
Waxing Crescent, 5% of the Moon is Illuminated
Today
Waxing Crescent
Oct 30
First Quarter
Nov 6
Full
Nov 14
Last Quarter
Nov 22
New

Today's Extremes

State Highs State Lows

Community

WunderPhotos

Upload Photos

1,765,039 photos uploaded!

Nearby

Air Quality

  Air Quality AQ Index Pollutant
Yesterday Good
PM2.5
Current Good
PM2.5
Saturday Good
PM2.5
Sunday Good
PM2.5
Monday Good
PM2.5

Snow Depth

Station Depth Elevation
Magic Mountain 0 in 6880 ft
Wilson Creek 0 in 7120 ft
Wildhorse Divide 1 in 6490 ft
Oxford Spring 0 in 6740 ft
Franklin Basin 1 in 8170 ft

Earthquake Activity

City Distance Mag. Time & Date
No recent earthquake activity has been reported nearby.
Minimum magnitude displayed is 2.5.

Coastal Water Temperatures

Place Temperature
No Stations Reporting

Nearby Weather Stations